createdAt,value
2023-03-31T00:47:30.278Z,100202.59
2023-03-31T00:56:41.998Z,100198.43
2023-03-31T00:59:33.840Z,100200.48
2023-03-31T01:39:05.806Z,100214.02
2023-03-31T01:41:47.614Z,100220.31
2023-03-31T01:44:40.072Z,100221.82
2023-03-31T02:10:02.330Z,100222.73
2023-03-31T02:12:33.359Z,100225.91
2023-03-31T03:51:36.062Z,100229.80
2023-03-31T03:54:05.038Z,100228.77
2023-03-31T03:56:34.848Z,100224.08
2023-03-31T04:00:05.587Z,100221.31
2023-03-31T04:02:47.715Z,100214.44
2023-03-31T04:05:25.544Z,100218.04
2023-03-31T04:08:44.687Z,100214.98
2023-03-31T04:11:20.298Z,100216.75
2023-03-31T04:14:10.147Z,100219.27
2023-03-31T04:16:47.270Z,100218.88
2023-03-31T04:19:22.088Z,100216.39
2023-03-31T04:21:58.965Z,100216.02
2023-03-31T04:24:31.000Z,100216.36
2023-03-31T04:27:05.143Z,100216.53
2023-03-31T04:29:37.688Z,100216.05
2023-03-31T04:32:06.700Z,100215.75
2023-03-31T04:34:35.906Z,100217.44
2023-03-31T04:37:04.846Z,100217.34
2023-03-31T04:39:34.111Z,100214.17
2023-03-31T04:42:02.888Z,100212.52
2023-03-31T04:44:32.031Z,100211.35
2023-03-31T04:47:05.384Z,100213.47
2023-03-31T04:49:37.068Z,100215.09
2023-03-31T04:52:06.412Z,100208.63
2023-03-31T04:54:35.748Z,100205.67
2023-03-31T04:57:05.553Z,100206.38
2023-03-31T04:59:34.332Z,100207.17
2023-03-31T05:02:05.021Z,100205.58
2023-03-31T05:04:33.999Z,100204.27
2023-03-31T05:07:02.661Z,100202.81
2023-03-31T05:09:32.625Z,100193.71
2023-03-31T05:12:02.313Z,100192.11
2023-03-31T05:14:31.285Z,100196.08
2023-03-31T05:16:59.925Z,100195.75
2023-03-31T05:19:29.640Z,100193.99
2023-03-31T05:21:58.287Z,100203.81
2023-03-31T05:24:28.600Z,100198.85
2023-03-31T05:26:57.921Z,100200.38
2023-03-31T05:29:26.803Z,100199.32
2023-03-31T05:31:56.101Z,100196.83
2023-03-31T05:34:24.795Z,100193.59
2023-03-31T05:36:54.434Z,100196.36
2023-03-31T05:39:23.210Z,100201.56
2023-03-31T05:41:52.520Z,100199.06
2023-03-31T05:44:21.460Z,100203.90
2023-03-31T05:46:51.546Z,100202.38
2023-03-31T05:49:21.000Z,100204.41
2023-03-31T05:51:50.691Z,100206.45
2023-03-31T05:54:19.382Z,100203.08
2023-03-31T05:56:48.162Z,100201.15
2023-03-31T05:59:17.223Z,100198.91
2023-03-31T06:01:49.165Z,100196.07
2023-03-31T06:04:18.411Z,100196.02
2023-03-31T06:06:50.582Z,100198.68
2023-03-31T06:09:21.580Z,100195.52
2023-03-31T06:11:53.664Z,100196.00
2023-03-31T06:14:22.581Z,100198.20
2023-03-31T06:16:51.196Z,100196.57
2023-03-31T06:19:21.063Z,100186.20
2023-03-31T06:21:50.077Z,100186.27
2023-03-31T06:24:18.860Z,100185.90
2023-03-31T06:26:48.137Z,100180.09
2023-03-31T06:29:16.705Z,100173.88
2023-03-31T06:31:46.404Z,100178.80
2023-03-31T06:34:15.487Z,100174.27
2023-03-31T06:36:44.385Z,100179.23
2023-03-31T06:39:12.941Z,100176.71
2023-03-31T06:41:41.705Z,100170.88
2023-03-31T06:44:10.752Z,100172.59
2023-03-31T06:46:41.162Z,100173.87
2023-03-31T06:49:09.950Z,100173.27
2023-03-31T06:51:39.605Z,100170.64
2023-03-31T06:54:08.465Z,100174.75
2023-03-31T06:56:38.178Z,100174.12
2023-03-31T06:59:06.718Z,100174.83
2023-03-31T07:01:37.750Z,100174.23
2023-03-31T07:04:08.334Z,100168.56
2023-03-31T07:06:37.401Z,100171.90
2023-03-31T07:09:05.972Z,100175.30
2023-03-31T07:11:38.912Z,100169.79
2023-03-31T07:14:07.964Z,100171.48
2023-03-31T07:16:36.907Z,100172.20
2023-03-31T07:19:06.423Z,100171.84
2023-03-31T07:21:36.083Z,100168.45
2023-03-31T07:24:04.878Z,100170.63
2023-03-31T07:26:33.949Z,100168.17
2023-03-31T07:29:02.898Z,100162.64
2023-03-31T07:31:38.246Z,100166.67
2023-03-31T07:34:07.419Z,100170.08
2023-03-31T07:36:35.986Z,100171.73
2023-03-31T07:39:06.430Z,100168.98
2023-03-31T07:41:35.194Z,100166.23
2023-03-31T07:44:04.339Z,100166.73
2023-03-31T07:46:33.638Z,100161.41
2023-03-31T07:49:03.542Z,100155.50
2023-03-31T07:51:32.138Z,100151.56
2023-03-31T07:54:01.009Z,100148.29
2023-03-31T07:56:33.497Z,100145.91
2023-03-31T07:59:02.705Z,100145.73
2023-03-31T08:01:31.550Z,100149.67
2023-03-31T08:04:01.242Z,100150.39
2023-03-31T08:06:30.703Z,100148.46
2023-03-31T08:08:59.564Z,100152.58
2023-03-31T08:11:28.698Z,100151.31
2023-03-31T08:13:57.381Z,100148.08
2023-03-31T08:16:26.150Z,100148.79
2023-03-31T08:18:54.732Z,100147.42
2023-03-31T08:21:24.530Z,100148.14
2023-03-31T08:24:01.439Z,100147.39
2023-03-31T08:26:32.132Z,100151.80
2023-03-31T08:29:00.865Z,100153.63
2023-03-31T08:31:30.806Z,100153.89
2023-03-31T08:33:59.768Z,100152.27
2023-03-31T08:36:29.917Z,100151.91
2023-03-31T08:38:58.671Z,100156.50
2023-03-31T08:41:52.315Z,100163.92
2023-03-31T08:44:32.298Z,100159.45
2023-03-31T08:47:02.490Z,100165.80
2023-03-31T08:49:39.619Z,100164.14
2023-03-31T08:52:14.824Z,100161.77
2023-03-31T08:54:49.798Z,100157.71
2023-03-31T08:57:22.034Z,100159.61
2023-03-31T08:59:51.366Z,100163.52
2023-03-31T09:02:32.709Z,100162.58
2023-03-31T09:05:41.188Z,100163.02
2023-03-31T09:08:39.988Z,100155.73
2023-03-31T09:11:12.189Z,100151.27
2023-03-31T09:14:07.079Z,100148.52
2023-03-31T09:16:35.809Z,100144.98
2023-03-31T09:19:15.134Z,100145.33
2023-03-31T09:21:46.061Z,100139.43
2023-03-31T09:24:17.653Z,100142.34
2023-03-31T09:27:12.677Z,100144.67
2023-03-31T09:29:56.008Z,100144.34
2023-03-31T09:32:31.614Z,100141.34
2023-03-31T09:35:25.859Z,100140.58
2023-03-31T09:37:54.751Z,100134.91
2023-03-31T09:40:25.045Z,100139.20
2023-03-31T09:43:02.085Z,100135.04
2023-03-31T09:45:31.255Z,100133.61
2023-03-31T09:48:07.983Z,100131.10
2023-03-31T09:50:40.133Z,100137.41
2023-03-31T09:53:13.275Z,100138.23
2023-03-31T09:55:43.962Z,100141.41
2023-03-31T09:58:14.396Z,100149.64
2023-03-31T10:00:44.749Z,100148.91
2023-03-31T10:03:14.132Z,100146.86
2023-03-31T10:05:51.236Z,100141.90
2023-03-31T10:08:28.190Z,100139.32
2023-03-31T10:11:04.008Z,100134.52
2023-03-31T10:13:43.805Z,100133.11
2023-03-31T10:16:14.401Z,100126.50
2023-03-31T10:18:43.756Z,100125.98
2023-03-31T10:21:36.770Z,100120.95
2023-03-31T10:24:10.737Z,100117.89
2023-03-31T10:26:40.044Z,100121.05
2023-03-31T10:29:13.161Z,100121.61
2023-03-31T10:31:41.844Z,100112.40
2023-03-31T10:34:15.730Z,100117.04
2023-03-31T10:36:50.265Z,100121.34
2023-03-31T10:39:19.341Z,100123.06
2023-03-31T10:41:52.177Z,100121.60
2023-03-31T10:44:34.122Z,100114.40
2023-03-31T10:47:06.408Z,100114.69
2023-03-31T10:49:39.890Z,100114.73
2023-03-31T10:52:20.063Z,100108.28
2023-03-31T10:54:50.311Z,100106.05
2023-03-31T10:57:19.292Z,100094.77
2023-03-31T11:00:16.287Z,100093.10
2023-03-31T11:03:02.976Z,100093.27
2023-03-31T11:05:52.127Z,100089.16
2023-03-31T11:08:41.437Z,100088.75
2023-03-31T11:11:25.321Z,100092.38
2023-03-31T11:14:06.328Z,100084.93
2023-03-31T11:16:47.397Z,100086.96
2023-03-31T11:19:39.908Z,100090.58
2023-03-31T11:22:21.999Z,100081.36
2023-03-31T11:24:53.868Z,100083.30
2023-03-31T11:27:38.710Z,100083.00
2023-03-31T11:30:22.729Z,100080.29
2023-03-31T11:33:10.817Z,100073.83
2023-03-31T11:36:12.188Z,100069.75
2023-03-31T11:38:47.719Z,100065.36
2023-03-31T11:41:19.925Z,100064.38
2023-03-31T11:44:05.672Z,100063.28
2023-03-31T11:46:49.021Z,100059.11
2023-03-31T11:49:32.417Z,100062.07
2023-03-31T11:52:50.316Z,100058.52
2023-03-31T11:55:21.994Z,100051.67
2023-03-31T11:58:05.836Z,100053.73
2023-03-31T12:00:54.086Z,100053.27
2023-03-31T12:03:24.616Z,100053.88
2023-03-31T12:05:59.175Z,100055.33
2023-03-31T12:08:40.830Z,100046.75
2023-03-31T12:11:31.799Z,100049.70
2023-03-31T12:14:12.224Z,100047.92
2023-03-31T12:16:46.210Z,100047.45
2023-03-31T12:19:17.096Z,100036.79
2023-03-31T12:21:51.165Z,100028.64
2023-03-31T12:24:19.777Z,100018.31
2023-03-31T12:26:57.901Z,100028.54
2023-03-31T12:29:59.884Z,100026.66
2023-03-31T12:32:40.236Z,100024.15
2023-03-31T12:35:15.745Z,100013.87
2023-03-31T12:38:08.509Z,100009.39
2023-03-31T12:40:40.425Z,100006.61
2023-03-31T12:43:31.287Z,100008.00
2023-03-31T12:46:25.809Z,100004.42
2023-03-31T12:49:04.470Z,100004.89
2023-03-31T12:51:51.227Z,100000.00
2023-03-31T12:54:58.874Z,99991.86
2023-03-31T12:57:27.669Z,99990.50
2023-03-31T13:00:12.783Z,99992.32
2023-03-31T13:02:42.508Z,99989.94
2023-03-31T13:05:39.198Z,99980.30
2023-03-31T13:08:08.658Z,99988.17
2023-03-31T13:10:55.244Z,99979.11
2023-03-31T13:13:23.841Z,99982.30
2023-03-31T13:15:56.719Z,99977.38
2023-03-31T13:18:28.089Z,99974.56
2023-03-31T13:21:06.636Z,99968.95
2023-03-31T13:23:36.277Z,99970.02
2023-03-31T13:26:06.151Z,99969.82
2023-03-31T13:28:42.664Z,99966.92
2023-03-31T13:31:12.584Z,99964.02
2023-03-31T13:33:46.023Z,99959.58
2023-03-31T13:36:35.244Z,99954.39
2023-03-31T13:39:28.257Z,99950.08
2023-03-31T13:42:06.809Z,99942.59
2023-03-31T13:45:09.147Z,99948.52
2023-03-31T13:47:57.663Z,99948.69
2023-03-31T13:50:52.431Z,99940.64
2023-03-31T13:53:52.354Z,99943.14
2023-03-31T13:57:02.065Z,99936.99
2023-03-31T13:59:59.160Z,99937.11
2023-03-31T14:02:33.912Z,99929.20
2023-03-31T14:05:28.134Z,99931.08
2023-03-31T14:07:58.389Z,99931.95
2023-03-31T14:10:34.946Z,99932.20
2023-03-31T14:13:07.610Z,99930.27
2023-03-31T14:15:42.898Z,99933.48
2023-03-31T14:18:14.670Z,99931.80
2023-03-31T14:20:48.668Z,99926.42
2023-03-31T14:23:21.537Z,99924.23
2023-03-31T14:25:52.563Z,99925.77
2023-03-31T14:28:31.564Z,99925.68
2023-03-31T14:31:57.493Z,99927.45
2023-03-31T14:34:49.500Z,99921.88
2023-03-31T14:37:23.914Z,99920.32
2023-03-31T14:39:55.127Z,99918.28
2023-03-31T14:42:27.466Z,99914.48
2023-03-31T14:44:57.465Z,99911.32
2023-03-31T14:47:29.424Z,99908.57
2023-03-31T14:50:32.891Z,99911.13
2023-03-31T14:53:02.636Z,99906.95
2023-03-31T14:55:44.055Z,99904.41
2023-03-31T14:58:27.594Z,99902.73
2023-03-31T15:00:56.316Z,99905.74
2023-03-31T15:03:27.963Z,99904.10
2023-03-31T15:06:00.094Z,99905.45
2023-03-31T15:08:29.886Z,99904.79
2023-03-31T15:11:11.810Z,99902.15
2023-03-31T15:14:03.474Z,99903.15
2023-03-31T15:16:43.318Z,99905.61
2023-03-31T15:19:21.089Z,99904.27
2023-03-31T15:22:05.943Z,99906.81
2023-03-31T15:24:34.686Z,99905.59
2023-03-31T15:27:15.010Z,99911.77
2023-03-31T15:29:57.472Z,99912.31
2023-03-31T15:32:29.186Z,99907.05
2023-03-31T15:35:04.745Z,99913.61
2023-03-31T15:37:41.247Z,99910.35
2023-03-31T15:40:22.759Z,99909.60
2023-03-31T15:43:06.317Z,99910.83
2023-03-31T15:45:47.948Z,99911.15
2023-03-31T15:48:33.807Z,99905.80
2023-03-31T15:51:04.342Z,99906.55
2023-03-31T15:53:39.670Z,99907.89
2023-03-31T15:56:34.860Z,99910.66
2023-03-31T15:59:25.151Z,99909.98
2023-03-31T16:01:57.717Z,99911.76
2023-03-31T16:04:31.349Z,99908.70
2023-03-31T16:07:05.766Z,99912.52
2023-03-31T16:09:51.692Z,99914.27
2023-03-31T16:12:29.847Z,99911.75
2023-03-31T16:14:59.600Z,99914.27
2023-03-31T16:17:31.761Z,99909.61
2023-03-31T16:20:09.032Z,99908.46
2023-03-31T16:22:43.926Z,99913.50
2023-03-31T16:25:17.261Z,99908.24
2023-03-31T16:27:53.162Z,99912.54
2023-03-31T16:30:34.517Z,99916.21
2023-03-31T16:33:04.514Z,99914.83
2023-03-31T16:35:35.432Z,99910.98
2023-03-31T16:38:05.103Z,99909.98
2023-03-31T16:40:42.339Z,99912.15
2023-03-31T16:43:17.950Z,99914.82
2023-03-31T16:45:49.280Z,99912.33
2023-03-31T16:48:20.000Z,99912.14
2023-03-31T16:50:51.819Z,99922.69
2023-03-31T16:53:24.666Z,99920.85
2023-03-31T16:55:53.811Z,99920.00
2023-03-31T16:58:24.842Z,99921.24
2023-03-31T17:00:54.225Z,99921.89
2023-03-31T17:03:28.030Z,99916.68
2023-03-31T17:05:59.280Z,99917.52
2023-03-31T17:08:31.597Z,99921.55
2023-03-31T17:11:05.590Z,99921.23
2023-03-31T17:13:34.531Z,99923.21
2023-03-31T17:16:13.107Z,99930.98
2023-03-31T17:18:46.282Z,99928.60
2023-03-31T17:21:16.203Z,99934.70
2023-03-31T17:23:49.944Z,99933.11
2023-03-31T17:26:18.766Z,99936.09
2023-03-31T17:28:47.622Z,99935.17
2023-03-31T17:31:20.667Z,99941.56
2023-03-31T17:33:49.231Z,99939.91
2023-03-31T17:36:22.512Z,99944.07
2023-03-31T17:38:51.356Z,99943.05
2023-03-31T17:41:20.020Z,99947.40
2023-03-31T17:43:50.443Z,99950.96
2023-03-31T17:46:19.230Z,99956.11
2023-03-31T17:48:48.820Z,99958.85
2023-03-31T17:51:18.494Z,99965.27
2023-03-31T17:53:55.001Z,99966.50
2023-03-31T17:56:24.357Z,99972.70
2023-03-31T17:58:52.991Z,99974.46
2023-03-31T18:01:21.941Z,99978.21
2023-03-31T18:03:51.309Z,99984.41
2023-03-31T18:06:19.642Z,99978.98
2023-03-31T18:08:48.235Z,99977.09
2023-03-31T18:11:17.480Z,99976.72
2023-03-31T18:13:54.214Z,99985.98
2023-03-31T18:16:23.911Z,99993.96
2023-03-31T18:18:52.595Z,99999.73
2023-03-31T18:21:27.411Z,99998.41
2023-03-31T18:23:57.267Z,100006.10
2023-03-31T18:26:29.952Z,100007.86
2023-03-31T18:28:59.388Z,100010.70
2023-03-31T18:31:28.567Z,100007.64
2023-03-31T18:33:58.266Z,100012.76
2023-03-31T18:36:28.608Z,100012.74
2023-03-31T18:38:57.589Z,100010.95
2023-03-31T18:41:30.060Z,100010.25
2023-03-31T18:43:59.269Z,100005.66
2023-03-31T18:46:30.621Z,100007.98
2023-03-31T18:48:59.799Z,100003.13
2023-03-31T18:51:28.898Z,100007.08
2023-03-31T18:53:57.590Z,100008.17
2023-03-31T18:56:27.196Z,100010.52
2023-03-31T18:58:56.739Z,100007.59
2023-03-31T19:01:26.617Z,100004.54
2023-03-31T19:03:56.151Z,100004.51
2023-03-31T19:06:26.362Z,100000.66
2023-03-31T19:08:56.851Z,100001.96
2023-03-31T19:11:25.773Z,100003.00
2023-03-31T19:13:55.720Z,99999.80
2023-03-31T19:16:45.192Z,99998.78
2023-03-31T19:19:13.904Z,99998.09
2023-03-31T19:21:43.132Z,99992.72
2023-03-31T19:24:12.146Z,99999.25
2023-03-31T19:26:42.246Z,99991.52
2023-03-31T19:29:11.321Z,100007.40
2023-03-31T19:31:41.685Z,100005.34
2023-03-31T19:34:13.151Z,100012.83
2023-03-31T19:36:41.770Z,100001.42
2023-03-31T19:39:11.782Z,100005.98
2023-03-31T19:41:41.296Z,100005.58
2023-03-31T19:44:09.861Z,100001.34
2023-03-31T19:46:38.615Z,100002.85
2023-03-31T19:49:07.592Z,100003.79
2023-03-31T19:51:36.814Z,99998.18
2023-03-31T19:54:06.302Z,100014.39
2023-03-31T19:56:38.670Z,100005.02
2023-03-31T19:59:08.446Z,100011.55
2023-03-31T20:01:37.785Z,100013.20
2023-03-31T20:04:10.956Z,100001.50
2023-03-31T20:06:40.019Z,99993.17
2023-03-31T20:09:08.982Z,99990.60
2023-03-31T20:11:40.185Z,99995.27
2023-03-31T20:14:10.942Z,99991.19
2023-03-31T20:16:39.652Z,99986.02
2023-03-31T20:19:08.989Z,99997.53
2023-03-31T20:21:39.203Z,99992.94
2023-03-31T20:24:08.070Z,99989.61
2023-03-31T20:26:38.685Z,99993.48
2023-03-31T20:29:07.385Z,99987.11
2023-03-31T20:31:37.873Z,99991.90
2023-03-31T20:34:12.404Z,99989.80
2023-03-31T20:36:49.524Z,99986.78
2023-03-31T20:39:18.750Z,100001.55
2023-03-31T20:41:48.329Z,100003.44
2023-03-31T20:44:17.661Z,100004.38
2023-03-31T20:46:48.745Z,100000.16
2023-03-31T20:49:18.510Z,100002.31
2023-03-31T20:51:47.829Z,100001.39
2023-03-31T20:54:16.550Z,99998.85
2023-03-31T20:56:45.723Z,99996.61
2023-03-31T20:59:15.472Z,100003.47
2023-03-31T21:01:45.566Z,99997.70
2023-03-31T21:04:17.228Z,100003.50
2023-03-31T21:06:47.346Z,99998.19
2023-03-31T21:09:16.663Z,100001.72
2023-03-31T21:11:47.721Z,100000.88
2023-03-31T21:14:16.820Z,100012.89
2023-03-31T21:16:45.872Z,100000.86
2023-03-31T21:19:14.866Z,100018.83
2023-03-31T21:21:43.529Z,100008.27
2023-03-31T21:24:12.782Z,100015.52
2023-03-31T21:26:42.239Z,100017.66
2023-03-31T21:29:12.771Z,100014.54
2023-03-31T21:31:42.358Z,100029.44
2023-03-31T21:34:12.180Z,100027.96
2023-03-31T21:36:40.811Z,100036.27
2023-03-31T21:39:10.015Z,100036.94
2023-03-31T21:41:40.719Z,100034.89
2023-03-31T21:44:10.155Z,100037.42
2023-03-31T21:46:39.508Z,100029.70
2023-03-31T21:49:08.427Z,100035.11
2023-03-31T21:51:37.173Z,100035.86
2023-03-31T21:54:07.040Z,100032.38
2023-03-31T21:56:35.856Z,100029.88
2023-03-31T21:59:04.572Z,100035.10
2023-03-31T22:01:33.144Z,100026.63
2023-03-31T22:04:02.407Z,100025.17
2023-03-31T22:06:31.148Z,100028.10
2023-03-31T22:08:59.590Z,100033.88
2023-03-31T22:11:31.442Z,100025.49
2023-03-31T22:14:00.815Z,100012.27
2023-03-31T22:16:29.845Z,100017.02
2023-03-31T22:18:59.558Z,100022.71
2023-03-31T22:21:43.839Z,100014.77
2023-03-31T22:24:13.944Z,100018.10
2023-03-31T22:26:43.298Z,100012.52
2023-03-31T22:29:15.165Z,100020.65
2023-03-31T22:31:45.140Z,100015.90
2023-03-31T22:34:15.710Z,100011.00
2023-03-31T22:36:44.904Z,100016.21
2023-03-31T22:39:14.727Z,100017.86
2023-03-31T22:41:43.824Z,100022.14
2023-03-31T22:44:12.150Z,100015.26
2023-03-31T22:46:41.857Z,100020.31
2023-03-31T22:49:10.398Z,100008.34
2023-03-31T22:51:40.943Z,100013.64
2023-03-31T22:54:13.183Z,100010.08
2023-03-31T22:56:43.207Z,100017.70
2023-03-31T22:59:11.852Z,100014.89
2023-03-31T23:01:40.605Z,100021.84
2023-03-31T23:04:09.369Z,100006.42
2023-03-31T23:06:39.337Z,100016.36
2023-03-31T23:09:08.132Z,100014.59
2023-03-31T23:11:37.491Z,100015.52
2023-03-31T23:14:06.088Z,100012.48
2023-03-31T23:16:34.636Z,100015.44
2023-03-31T23:19:03.906Z,100009.58
2023-03-31T23:21:32.868Z,100019.80
2023-03-31T23:24:02.366Z,100008.59
2023-03-31T23:26:32.515Z,100020.50
2023-03-31T23:29:01.309Z,100016.21
2023-03-31T23:31:31.937Z,100013.11
2023-03-31T23:34:00.774Z,100022.14
2023-03-31T23:36:29.659Z,100019.96
2023-03-31T23:39:01.445Z,100006.10
2023-03-31T23:41:31.664Z,100011.40
2023-03-31T23:44:00.259Z,100012.94
2023-03-31T23:46:30.020Z,100009.59
2023-03-31T23:48:58.972Z,100010.38
2023-03-31T23:51:27.747Z,100009.29
2023-03-31T23:53:56.567Z,99995.90
2023-03-31T23:56:25.657Z,100014.52
2023-03-31T23:58:55.721Z,100007.80
